Time;durP1;ratioP1;P1;durP2;ratioP2;P2;SDS_P1;SDS_P2;PMS_P1;PMS_P2;Temp;Humidity;BMP_temperature;BMP_pressure;BME280_temperature;BME280_humidity;BME280_pressure;Samples;Min_cycle;Max_cycle;Signal;HPM_P1;HPM_P2
2022/10/27 00:02:02;;;;;;;14.30;4.60;;;;;;;11.40;100.00;99422.28;6175473;23;20213;-58
2022/10/27 00:04:28;;;;;;;11.30;3.43;;;;;;;11.45;100.00;99417.47;6171046;23;20269;-58
2022/10/27 00:06:55;;;;;;;14.63;3.57;;;;;;;11.52;100.00;99422.00;6175607;23;20210;-58
2022/10/27 00:09:21;;;;;;;11.47;2.93;;;;;;;11.50;100.00;99416.09;6171775;23;20682;-58
2022/10/27 00:11:48;;;;;;;12.80;3.50;;;;;;;11.52;100.00;99413.34;6174376;23;20672;-59
2022/10/27 00:14:18;;;;;;;7.37;3.80;;;;;;;11.51;100.00;99419.56;6170776;23;20289;-58
2022/10/27 00:16:44;;;;;;;14.37;4.30;;;;;;;11.46;100.00;99412.09;6174232;23;20201;-59
2022/10/27 00:19:11;;;;;;;8.83;3.70;;;;;;;11.48;100.00;99407.56;6171926;23;20206;-58
2022/10/27 00:21:37;;;;;;;11.53;3.17;;;;;;;11.55;100.00;99414.84;6175506;23;20288;-59
2022/10/27 00:24:04;;;;;;;8.70;3.83;;;;;;;11.51;100.00;99412.53;6175442;23;20203;-58
2022/10/27 00:26:30;;;;;;;7.33;3.07;;;;;;;11.47;100.00;99410.34;6172051;23;20211;-58
2022/10/27 00:28:58;;;;;;;11.83;3.30;;;;;;;11.43;100.00;99414.19;6175431;23;20669;-58
2022/10/27 00:31:26;;;;;;;9.43;2.90;;;;;;;11.37;100.00;99405.91;6172044;23;20210;-59
2022/10/27 00:33:52;;;;;;;12.07;3.27;;;;;;;11.34;100.00;99407.97;6173613;23;20259;-59
2022/10/27 00:36:21;;;;;;;10.90;3.33;;;;;;;11.41;100.00;99405.66;6172269;23;20735;-58
2022/10/27 00:38:48;;;;;;;11.67;3.30;;;;;;;11.45;100.00;99409.63;6175281;23;20206;-58
2022/10/27 00:41:26;;;;;;;8.03;2.70;;;;;;;11.46;100.00;99421.75;6172057;23;20562;-58
2022/10/27 00:43:53;;;;;;;7.30;3.10;;;;;;;11.40;100.00;99422.28;6175142;23;20534;-59
2022/10/27 00:46:31;;;;;;;7.63;3.00;;;;;;;11.34;100.00;99428.88;6172081;23;20643;-60
2022/10/27 00:49:03;;;;;;;6.73;2.50;;;;;;;11.36;100.00;99433.03;6175511;23;20207;-58
2022/10/27 00:51:30;;;;;;;6.77;3.00;;;;;;;11.30;100.00;99425.72;6172311;23;20210;-58
2022/10/27 00:53:56;;;;;;;9.87;2.83;;;;;;;11.25;100.00;99429.69;6175276;23;20572;-59
2022/10/27 00:56:24;;;;;;;10.17;3.20;;;;;;;11.27;100.00;99428.59;6172177;23;20664;-59
2022/10/27 00:58:51;;;;;;;8.73;3.37;;;;;;;11.24;100.00;99428.88;6175652;23;20206;-59
2022/10/27 01:01:18;;;;;;;13.10;3.20;;;;;;;11.26;100.00;99436.56;6172267;23;20214;-58
2022/10/27 01:03:45;;;;;;;18.13;3.60;;;;;;;11.20;100.00;99441.38;6174664;23;20206;-59
2022/10/27 01:06:14;;;;;;;8.10;3.20;;;;;;;11.12;100.00;99441.25;6144635;23;20252;-59
2022/10/27 01:08:40;;;;;;;9.53;2.90;;;;;;;11.12;100.00;99443.00;6174603;23;20599;-57
2022/10/27 01:11:07;;;;;;;12.83;3.10;;;;;;;11.05;100.00;99445.34;6174728;23;20215;-58
2022/10/27 01:13:34;;;;;;;14.70;4.20;;;;;;;11.04;100.00;99447.13;6163073;23;20222;-59
2022/10/27 01:16:10;;;;;;;10.37;3.33;;;;;;;11.00;100.00;99437.91;6175402;23;20217;-59
2022/10/27 01:18:47;;;;;;;10.37;3.53;;;;;;;10.99;100.00;99436.25;6171965;23;20213;-58
2022/10/27 01:21:36;;;;;;;11.43;3.30;;;;;;;10.93;100.00;99434.16;6171237;23;20210;-59
2022/10/27 01:24:24;;;;;;;10.43;3.00;;;;;;;10.87;100.00;99419.03;6174851;23;20270;-58
2022/10/27 01:26:53;;;;;;;9.13;3.23;;;;;;;10.78;100.00;99423.28;6172052;23;20584;-58
2022/10/27 01:29:47;;;;;;;11.60;3.00;;;;;;;10.76;100.00;99422.56;6171631;23;20264;-55
2022/10/27 01:32:27;;;;;;;10.20;3.00;;;;;;;10.76;100.00;99419.97;6171025;23;20213;-59
2022/10/27 01:35:01;;;;;;;10.63;3.00;;;;;;;10.66;100.00;99409.47;6174770;23;20209;-59
2022/10/27 01:37:35;;;;;;;9.37;3.10;;;;;;;10.59;100.00;99408.38;6171465;23;20733;-57
2022/10/27 01:40:09;;;;;;;10.40;3.80;;;;;;;10.69;100.00;99405.78;6174989;23;20213;-59
2022/10/27 01:42:44;;;;;;;8.87;4.20;;;;;;;10.73;100.00;99402.75;6171793;23;20305;-59
2022/10/27 01:45:15;;;;;;;16.17;3.67;;;;;;;10.67;100.00;99394.66;6171299;23;20201;-59
2022/10/27 01:47:43;;;;;;;8.43;3.40;;;;;;;10.73;100.00;99394.13;6173683;23;20262;-56
2022/10/27 01:50:10;;;;;;;15.23;3.77;;;;;;;10.74;100.00;99393.16;6171353;23;20205;-58
2022/10/27 01:52:44;;;;;;;12.37;4.00;;;;;;;10.78;100.00;99392.75;6174978;23;20213;-58
2022/10/27 01:55:17;;;;;;;11.40;3.50;;;;;;;10.72;100.00;99390.66;6145139;23;20202;-59
2022/10/27 01:57:59;;;;;;;9.37;3.23;;;;;;;10.76;100.00;99393.84;6175325;23;20210;-59
2022/10/27 02:00:25;;;;;;;11.67;4.03;;;;;;;10.84;100.00;99390.56;6171861;23;20205;-59
2022/10/27 02:03:00;;;;;;;10.67;3.50;;;;;;;10.76;100.00;99401.69;6174599;23;20210;-59
2022/10/27 02:05:34;;;;;;;13.90;3.90;;;;;;;10.84;100.00;99401.84;6171362;23;20288;-59
2022/10/27 02:08:08;;;;;;;10.77;3.60;;;;;;;10.83;100.00;99404.56;6175109;23;20266;-59
2022/10/27 02:10:40;;;;;;;15.20;3.73;;;;;;;10.88;100.00;99418.91;6173744;23;20210;-59
2022/10/27 02:13:08;;;;;;;13.90;4.03;;;;;;;10.86;100.00;99415.59;6176347;23;20220;-59
2022/10/27 02:15:38;;;;;;;8.00;3.50;;;;;;;10.77;100.00;99411.97;6147492;23;20209;-59
2022/10/27 02:18:10;;;;;;;12.43;3.63;;;;;;;10.78;100.00;99418.03;6177028;23;20210;-58
2022/10/27 02:20:41;;;;;;;7.47;2.90;;;;;;;10.65;100.00;99407.81;6147757;23;20719;-59
2022/10/27 02:23:11;;;;;;;9.70;3.37;;;;;;;10.56;100.00;99406.84;6176689;23;20201;-58
2022/10/27 02:25:44;;;;;;;11.10;3.40;;;;;;;10.50;100.00;99396.09;6173239;23;20280;-59
2022/10/27 02:28:14;;;;;;;6.67;3.07;;;;;;;10.50;100.00;99396.91;6173474;23;20253;-59
2022/10/27 02:30:42;;;;;;;7.07;3.17;;;;;;;10.45;100.00;99394.72;6176950;23;20208;-59
2022/10/27 02:33:10;;;;;;;12.73;3.30;;;;;;;10.42;100.00;99394.13;6175728;23;20206;-60
2022/10/27 02:35:37;;;;;;;11.63;3.63;;;;;;;10.39;100.00;99391.75;6174538;23;20216;-59
2022/10/27 02:38:04;;;;;;;15.43;3.87;;;;;;;10.43;100.00;99387.94;6176624;23;20271;-59
2022/10/27 02:40:30;;;;;;;11.87;3.50;;;;;;;10.42;100.00;99388.91;6172820;23;20202;-58
2022/10/27 02:42:57;;;;;;;13.20;3.13;;;;;;;10.38;100.00;99397.94;6150239;23;20256;-57
2022/10/27 02:45:24;;;;;;;10.53;3.30;;;;;;;10.32;100.00;99407.94;6173607;23;20534;-56
2022/10/27 02:47:50;;;;;;;11.07;3.43;;;;;;;10.38;100.00;99413.59;6177143;23;20675;-58
2022/10/27 02:50:18;;;;;;;16.93;3.63;;;;;;;10.47;100.00;99418.91;6173243;23;20201;-59
2022/10/27 02:52:45;;;;;;;10.40;3.87;;;;;;;10.43;100.00;99429.72;6176556;23;20260;-59
2022/10/27 02:55:11;;;;;;;12.57;3.40;;;;;;;10.38;100.00;99421.41;6173015;23;20212;-58
2022/10/27 02:57:38;;;;;;;12.47;3.70;;;;;;;10.31;100.00;99416.72;6176920;23;20572;-59
2022/10/27 03:00:06;;;;;;;5.30;3.00;;;;;;;10.24;100.00;99418.19;6175017;23;20213;-59
2022/10/27 03:02:33;;;;;;;13.57;3.17;;;;;;;10.24;100.00;99417.38;6172998;23;20210;-59
2022/10/27 03:04:59;;;;;;;7.60;3.20;;;;;;;10.22;100.00;99419.28;6150006;23;20912;-58
2022/10/27 03:07:27;;;;;;;11.40;3.60;;;;;;;10.24;100.00;99422.59;6146602;23;20201;-59
2022/10/27 03:09:54;;;;;;;8.03;3.27;;;;;;;10.26;100.00;99418.06;6176485;23;20268;-58
2022/10/27 03:12:20;;;;;;;5.90;2.90;;;;;;;10.18;100.00;99414.31;6173097;23;20218;-58
2022/10/27 03:14:47;;;;;;;9.33;3.40;;;;;;;10.20;100.00;99408.97;6176009;23;20649;-58
2022/10/27 03:17:13;;;;;;;10.07;3.17;;;;;;;10.15;100.00;99404.16;6173160;23;20710;-58
2022/10/27 03:19:40;;;;;;;8.27;2.93;;;;;;;10.22;100.00;99406.25;6176482;23;20266;-58
2022/10/27 03:22:06;;;;;;;11.33;3.33;;;;;;;10.17;100.00;99415.28;6176601;23;20213;-59
2022/10/27 03:24:34;;;;;;;7.37;3.13;;;;;;;10.19;100.00;99413.38;6172829;23;20203;-59
2022/10/27 03:27:01;;;;;;;8.13;3.40;;;;;;;10.13;100.00;99415.66;6176408;23;20262;-59
2022/10/27 03:29:27;;;;;;;10.90;3.43;;;;;;;10.13;100.00;99419.09;6172819;23;20213;-59
2022/10/27 03:31:54;;;;;;;8.63;3.20;;;;;;;10.14;100.00;99418.13;6156510;23;20575;-51
2022/10/27 03:34:20;;;;;;;6.90;2.90;;;;;;;10.10;100.00;99418.50;6172081;23;20714;-51
2022/10/27 03:36:47;;;;;;;7.37;3.20;;;;;;;10.10;100.00;99424.56;6176364;23;20637;-51
2022/10/27 03:39:14;;;;;;;5.00;2.83;;;;;;;10.08;100.00;99425.63;6172670;23;20276;-51
2022/10/27 03:41:42;;;;;;;11.37;3.07;;;;;;;10.06;100.00;99419.75;6176308;23;20218;-52
2022/10/27 03:44:08;;;;;;;9.10;2.87;;;;;;;10.04;100.00;99425.06;6175941;23;20205;-51
2022/10/27 03:46:35;;;;;;;7.47;2.87;;;;;;;10.04;100.00;99419.88;6173596;23;20259;-52
2022/10/27 03:49:01;;;;;;;7.30;2.90;;;;;;;10.02;100.00;99417.41;6176427;23;20206;-52
2022/10/27 03:51:28;;;;;;;8.50;2.80;;;;;;;10.05;100.00;99421.50;6172664;23;20264;-54
2022/10/27 03:53:56;;;;;;;6.27;3.20;;;;;;;10.06;100.00;99417.13;6175135;23;20210;-54
2022/10/27 03:56:23;;;;;;;10.33;2.77;;;;;;;10.05;100.00;99418.91;6172463;23;20205;-54
2022/10/27 03:58:51;;;;;;;12.27;3.50;;;;;;;10.02;100.00;99419.16;6149755;23;20572;-53
2022/10/27 04:01:17;;;;;;;8.27;2.80;;;;;;;10.02;100.00;99420.00;6172390;23;20218;-52
2022/10/27 04:03:47;;;;;;;8.00;3.20;;;;;;;9.98;100.00;99415.16;6175591;23;20205;-52
2022/10/27 04:06:13;;;;;;;9.20;3.40;;;;;;;9.97;100.00;99411.72;6172458;23;20214;-51
2022/10/27 04:08:40;;;;;;;10.90;3.33;;;;;;;10.04;100.00;99412.88;6175884;23;20212;-51
2022/10/27 04:11:06;;;;;;;8.13;2.80;;;;;;;10.06;100.00;99414.53;6175925;23;20213;-51
2022/10/27 04:13:33;;;;;;;5.57;2.87;;;;;;;10.00;100.00;99418.47;6171861;23;20271;-51
2022/10/27 04:16:01;;;;;;;10.43;3.23;;;;;;;10.03;100.00;99415.59;6175641;23;20529;-52
2022/10/27 04:18:27;;;;;;;10.80;3.30;;;;;;;10.02;100.00;99413.94;6172158;23;20255;-51
2022/10/27 04:20:54;;;;;;;10.00;2.87;;;;;;;9.97;100.00;99401.31;6175511;23;20205;-52
2022/10/27 04:23:21;;;;;;;9.73;3.37;;;;;;;9.95;100.00;99400.59;6171463;23;20208;-51
2022/10/27 04:25:47;;;;;;;8.67;3.10;;;;;;;9.91;100.00;99399.19;6175776;23;20264;-52
2022/10/27 04:28:14;;;;;;;10.70;2.90;;;;;;;9.89;100.00;99388.88;6171737;23;20292;-51
2022/10/27 04:30:41;;;;;;;12.40;3.00;;;;;;;9.93;100.00;99386.88;6175058;23;20281;-54
2022/10/27 04:33:09;;;;;;;12.40;2.77;;;;;;;9.93;100.00;99386.03;6174752;23;20204;-55
2022/10/27 04:35:35;;;;;;;6.07;2.60;;;;;;;9.86;100.00;99381.31;6172382;23;20221;-52
2022/10/27 04:38:02;;;;;;;9.37;3.10;;;;;;;9.83;100.00;99375.53;6176038;23;20668;-55
2022/10/27 04:40:29;;;;;;;9.77;4.10;;;;;;;9.87;100.00;99372.53;6172347;23;20201;-52
2022/10/27 04:42:55;;;;;;;8.10;3.03;;;;;;;9.90;100.00;99379.28;6175642;23;20209;-54
2022/10/27 04:45:22;;;;;;;7.97;2.63;;;;;;;10.04;100.00;99381.56;6171862;23;20213;-56
2022/10/27 04:47:49;;;;;;;8.40;3.00;;;;;;;10.03;100.00;99382.53;6148833;23;20201;-53
2022/10/27 04:50:17;;;;;;;4.73;2.63;;;;;;;10.06;100.00;99389.25;6171848;23;20258;-53
2022/10/27 04:52:54;;;;;;;5.73;2.87;;;;;;;10.09;100.00;99396.00;6175426;23;20211;-53
2022/10/27 04:55:21;;;;;;;8.17;2.80;;;;;;;10.03;100.00;99387.75;6171744;23;20217;-55
2022/10/27 04:57:47;;;;;;;10.57;3.53;;;;;;;10.00;100.00;99387.16;6149562;23;20201;-53
2022/10/27 05:00:14;;;;;;;9.80;3.07;;;;;;;9.98;100.00;99389.06;6171782;23;20725;-53
2022/10/27 05:02:41;;;;;;;9.67;2.80;;;;;;;9.90;100.00;99389.72;6175599;23;20255;-54
2022/10/27 05:05:08;;;;;;;12.60;3.20;;;;;;;9.86;100.00;99396.97;6175371;23;20202;-55
2022/10/27 05:07:36;;;;;;;8.77;3.33;;;;;;;9.88;100.00;99396.84;6146227;23;20232;-53
2022/10/27 05:10:03;;;;;;;11.43;3.40;;;;;;;9.89;100.00;99401.91;6175534;23;20255;-53
2022/10/27 05:12:30;;;;;;;7.47;3.03;;;;;;;9.87;100.00;99409.03;6172080;23;20221;-52
2022/10/27 05:14:57;;;;;;;8.33;3.23;;;;;;;9.90;100.00;99418.41;6174760;23;20280;-56
2022/10/27 05:17:23;;;;;;;23.57;14.70;;;;;;;9.93;100.00;99412.09;6171704;23;20717;-55
2022/10/27 05:19:50;;;;;;;14.07;7.43;;;;;;;9.89;100.00;99421.97;6174354;23;20256;-53
2022/10/27 05:22:16;;;;;;;21.53;15.93;;;;;;;9.91;100.00;99422.66;6169705;23;20261;-54
2022/10/27 05:24:44;;;;;;;10.13;5.73;;;;;;;9.94;100.00;99425.03;6174377;23;20575;-54
2022/10/27 05:27:11;;;;;;;11.10;4.50;;;;;;;9.90;100.00;99429.66;6171702;23;20201;-51
2022/10/27 05:29:37;;;;;;;13.53;4.63;;;;;;;9.90;100.00;99431.44;6174920;23;20201;-54
2022/10/27 05:32:04;;;;;;;12.13;4.87;;;;;;;9.93;100.00;99425.13;6174969;23;20266;-54
2022/10/27 05:34:30;;;;;;;22.20;13.93;;;;;;;9.93;100.00;99425.13;6171150;23;20205;-54
2022/10/27 05:36:57;;;;;;;23.60;11.07;;;;;;;9.89;100.00;99437.63;6175233;23;20201;-55
2022/10/27 05:39:23;;;;;;;13.67;7.37;;;;;;;9.89;100.00;99429.78;6171431;23;20639;-54
2022/10/27 05:41:51;;;;;;;15.70;7.43;;;;;;;9.82;100.00;99426.03;6147914;23;20213;-54
2022/10/27 05:44:18;;;;;;;11.47;5.53;;;;;;;9.74;100.00;99424.03;6171480;23;20200;-56
2022/10/27 05:46:44;;;;;;;12.10;5.27;;;;;;;9.71;100.00;99419.91;6177455;23;20201;-54
2022/10/27 05:49:11;;;;;;;11.87;4.97;;;;;;;9.64;100.00;99405.72;6173540;23;20867;-54
2022/10/27 05:51:38;;;;;;;13.50;5.63;;;;;;;9.65;100.00;99410.00;6176824;23;20213;-54
2022/10/27 05:54:04;;;;;;;8.43;5.10;;;;;;;9.63;100.00;99400.63;6176736;23;20204;-54
2022/10/27 05:56:31;;;;;;;12.27;4.80;;;;;;;9.61;100.00;99390.34;6173886;23;20650;-52
2022/10/27 05:58:59;;;;;;;10.40;4.40;;;;;;;9.61;100.00;99387.72;6176848;23;20288;-54
2022/10/27 06:01:26;;;;;;;18.77;5.40;;;;;;;9.74;100.00;99383.16;6172607;23;20260;-53
2022/10/27 06:03:53;;;;;;;11.97;4.87;;;;;;;9.77;100.00;99381.25;6176536;23;20256;-55
2022/10/27 06:06:19;;;;;;;15.37;6.23;;;;;;;9.86;100.00;99376.09;6173339;23;20308;-55
2022/10/27 06:08:46;;;;;;;13.70;5.67;;;;;;;9.85;100.00;99391.88;6175145;23;20263;-52
2022/10/27 06:11:12;;;;;;;20.03;6.13;;;;;;;9.86;100.00;99394.34;6173244;23;20268;-55
2022/10/27 06:13:39;;;;;;;12.80;4.67;;;;;;;9.84;100.00;99400.66;6175265;23;20211;-52
2022/10/27 06:16:07;;;;;;;10.03;4.50;;;;;;;9.82;100.00;99397.34;6176876;23;20211;-55
2022/10/27 06:18:34;;;;;;;6.87;3.90;;;;;;;9.82;100.00;99392.13;6173375;23;20259;-53
2022/10/27 06:21:00;;;;;;;11.93;4.97;;;;;;;9.86;100.00;99399.56;6176995;23;20205;-54
2022/10/27 06:23:28;;;;;;;14.03;4.80;;;;;;;9.93;100.00;99394.69;6173079;23;20204;-55
2022/10/27 06:25:55;;;;;;;9.43;4.80;;;;;;;9.91;100.00;99391.38;6176604;23;20259;-53
2022/10/27 06:28:21;;;;;;;11.60;4.47;;;;;;;9.94;100.00;99400.72;6173060;23;20210;-53
2022/10/27 06:30:48;;;;;;;13.43;4.53;;;;;;;9.95;100.00;99407.59;6177039;23;20287;-53
2022/10/27 06:33:16;;;;;;;9.97;4.90;;;;;;;9.95;100.00;99407.59;6172483;23;20515;-56
2022/10/27 06:35:45;;;;;;;11.87;4.87;;;;;;;9.97;100.00;99414.34;6176387;23;20209;-52
2022/10/27 06:38:15;;;;;;;9.43;4.47;;;;;;;10.03;100.00;99413.00;6172870;23;20256;-54
2022/10/27 06:40:42;;;;;;;8.27;4.87;;;;;;;10.04;100.00;99409.44;6176750;23;20204;-54
2022/10/27 06:43:09;;;;;;;12.63;4.60;;;;;;;10.07;100.00;99413.56;6176507;23;20208;-53
2022/10/27 06:45:36;;;;;;;10.03;4.40;;;;;;;10.08;100.00;99418.66;6173359;23;20208;-51
2022/10/27 06:48:04;;;;;;;12.03;4.37;;;;;;;10.11;100.00;99435.81;6176401;23;20575;-55
2022/10/27 06:50:33;;;;;;;8.93;4.33;;;;;;;10.17;100.00;99440.53;6172944;23;20258;-55
2022/10/27 06:53:00;;;;;;;9.53;4.27;;;;;;;10.23;100.00;99447.03;6175919;23;20210;-54
2022/10/27 06:55:27;;;;;;;9.17;4.73;;;;;;;10.25;100.00;99445.94;6172650;23;20206;-54
2022/10/27 06:57:53;;;;;;;13.03;3.90;;;;;;;10.33;100.00;99453.13;6175906;23;20527;-51
2022/10/27 07:00:20;;;;;;;10.57;4.50;;;;;;;10.37;100.00;99467.56;6172410;23;20283;-52
2022/10/27 07:02:47;;;;;;;9.43;4.20;;;;;;;10.37;100.00;99470.19;6175876;23;20214;-52
2022/10/27 07:05:14;;;;;;;10.87;4.90;;;;;;;10.40;100.00;99466.50;6171887;23;20205;-53
2022/10/27 07:07:46;;;;;;;13.83;5.17;;;;;;;10.42;100.00;99478.50;6174862;23;20267;-52
2022/10/27 07:10:12;;;;;;;11.40;4.70;;;;;;;10.46;100.00;99492.09;6172514;23;20279;-54
2022/10/27 07:12:39;;;;;;;8.60;3.90;;;;;;;10.47;100.00;99485.91;6175774;23;20203;-55
2022/10/27 07:15:07;;;;;;;11.50;4.20;;;;;;;10.51;100.00;99483.91;6175769;23;20205;-55
2022/10/27 07:17:33;;;;;;;14.47;4.37;;;;;;;10.58;100.00;99490.25;6172500;23;20251;-53
2022/10/27 07:20:00;;;;;;;11.73;4.63;;;;;;;10.62;100.00;99499.47;6175955;23;20205;-55
2022/10/27 07:22:26;;;;;;;16.47;4.97;;;;;;;10.63;100.00;99493.28;6172509;23;20585;-53
2022/10/27 07:24:54;;;;;;;9.97;3.80;;;;;;;10.66;100.00;99497.44;6175898;23;20257;-55
2022/10/27 07:27:21;;;;;;;7.87;4.10;;;;;;;10.68;100.00;99491.09;6172379;23;20588;-53
2022/10/27 07:29:48;;;;;;;12.60;4.87;;;;;;;10.69;100.00;99500.59;6176351;23;20669;-52
2022/10/27 07:32:14;;;;;;;8.73;4.80;;;;;;;10.71;100.00;99501.28;6171943;23;20206;-54
2022/10/27 07:34:41;;;;;;;12.73;6.03;;;;;;;10.74;100.00;99497.59;6175855;23;20209;-54
2022/10/27 07:37:08;;;;;;;11.57;5.27;;;;;;;10.78;100.00;99491.97;6176083;23;20774;-52
2022/10/27 07:39:34;;;;;;;10.17;6.07;;;;;;;10.83;100.00;99494.22;6172534;23;20723;-52
2022/10/27 07:42:02;;;;;;;16.20;6.57;;;;;;;10.84;100.00;99492.41;6175775;23;20549;-53
2022/10/27 07:44:29;;;;;;;14.13;6.47;;;;;;;10.85;100.00;99483.63;6171933;23;20285;-55
2022/10/27 07:46:55;;;;;;;15.63;7.00;;;;;;;10.88;100.00;99478.97;6175561;23;20209;-54
2022/10/27 07:49:22;;;;;;;14.63;5.40;;;;;;;10.90;100.00;99481.44;6172278;23;20264;-52
2022/10/27 07:51:48;;;;;;;15.63;4.87;;;;;;;10.95;100.00;99479.25;6173375;23;20323;-54
2022/10/27 07:54:15;;;;;;;11.00;3.87;;;;;;;10.99;100.00;99477.22;6171958;23;20274;-55
2022/10/27 07:56:41;;;;;;;14.27;4.50;;;;;;;11.05;100.00;99474.91;6175999;23;20264;-55
2022/10/27 07:59:09;;;;;;;9.67;4.30;;;;;;;11.11;100.00;99470.09;6175386;23;20208;-53
2022/10/27 08:01:36;;;;;;;12.20;3.90;;;;;;;11.15;100.00;99466.25;6172342;23;20213;-53
2022/10/27 08:04:02;;;;;;;9.33;4.17;;;;;;;11.22;100.00;99478.66;6175312;23;20205;-53
2022/10/27 08:06:29;;;;;;;10.57;4.10;;;;;;;11.31;100.00;99481.41;6172486;23;20665;-52
2022/10/27 08:08:56;;;;;;;9.40;3.60;;;;;;;11.42;100.00;99493.56;6175578;23;20533;-55
2022/10/27 08:11:22;;;;;;;12.57;3.70;;;;;;;11.50;100.00;99489.31;6172176;23;20585;-55
2022/10/27 08:13:49;;;;;;;8.73;3.83;;;;;;;11.60;100.00;99491.94;6175792;23;20568;-53
2022/10/27 08:16:17;;;;;;;8.40;3.87;;;;;;;11.73;100.00;99496.91;6145854;23;20213;-55
2022/10/27 08:18:43;;;;;;;8.03;3.57;;;;;;;11.84;100.00;99495.94;6176029;23;20272;-54
2022/10/27 08:21:10;;;;;;;13.53;4.40;;;;;;;11.96;100.00;99504.47;6172129;23;20255;-55
2022/10/27 08:23:37;;;;;;;15.10;5.93;;;;;;;12.08;100.00;99506.03;6174808;23;20660;-54
2022/10/27 08:26:03;;;;;;;12.97;5.20;;;;;;;12.23;100.00;99516.03;6175546;23;20534;-53
2022/10/27 08:28:30;;;;;;;17.27;6.83;;;;;;;12.36;100.00;99513.16;6171903;23;20218;-55
2022/10/27 08:30:58;;;;;;;13.07;6.60;;;;;;;12.46;100.00;99515.75;6175635;23;20214;-55
2022/10/27 08:33:26;;;;;;;16.93;7.93;;;;;;;12.54;100.00;99508.84;6171640;23;20646;-55
2022/10/27 08:35:52;;;;;;;23.30;8.37;;;;;;;12.65;100.00;99515.69;6175468;23;20218;-54
2022/10/27 08:38:20;;;;;;;17.03;7.17;;;;;;;12.76;100.00;99513.88;6172062;23;20210;-54
2022/10/27 08:41:01;;;;;;;12.13;6.87;;;;;;;12.87;100.00;99512.88;6167967;23;20199;-55
2022/10/27 08:43:46;;;;;;;16.87;6.53;;;;;;;12.95;100.00;99511.19;6171716;23;20206;-56
2022/10/27 08:46:20;;;;;;;12.43;6.23;;;;;;;13.01;100.00;99511.59;6170962;23;20206;-53
2022/10/27 08:48:51;;;;;;;14.40;6.70;;;;;;;13.11;100.00;99512.38;6175689;23;20197;-54
2022/10/27 08:51:22;;;;;;;13.63;6.93;;;;;;;13.20;100.00;99505.41;6171814;23;20218;-53
2022/10/27 08:53:53;;;;;;;13.50;4.50;;;;;;;13.29;100.00;99502.72;6175298;23;20998;-54
2022/10/27 08:56:22;;;;;;;12.33;4.37;;;;;;;13.37;100.00;99502.00;6172127;23;20643;-55
2022/10/27 08:58:49;;;;;;;8.67;3.60;;;;;;;13.47;100.00;99504.59;6174640;23;20257;-56
2022/10/27 09:01:29;;;;;;;7.57;3.47;;;;;;;13.56;100.00;99503.69;6171577;23;20616;-55
2022/10/27 09:04:10;;;;;;;8.73;3.07;;;;;;;13.64;100.00;99510.00;6174970;23;20221;-54
2022/10/27 09:06:44;;;;;;;8.97;3.50;;;;;;;13.78;100.00;99513.94;6172467;23;20206;-56
2022/10/27 09:09:18;;;;;;;9.57;3.23;;;;;;;13.88;100.00;99518.13;6172012;23;20253;-56
2022/10/27 09:11:52;;;;;;;6.73;3.17;;;;;;;14.01;100.00;99520.34;6175325;23;20647;-57
2022/10/27 09:14:33;;;;;;;10.53;4.93;;;;;;;14.14;100.00;99517.34;6171510;23;20228;-55
2022/10/27 09:17:03;;;;;;;13.20;6.13;;;;;;;14.26;100.00;99527.63;6175300;23;20273;-56
2022/10/27 09:19:36;;;;;;;11.47;5.53;;;;;;;14.41;100.00;99520.81;6171266;23;23954;-56
2022/10/27 09:22:06;;;;;;;16.97;8.93;;;;;;;14.52;100.00;99522.38;6175162;23;20208;-56
2022/10/27 09:24:37;;;;;;;11.60;5.63;;;;;;;14.58;100.00;99523.56;6145307;23;20204;-57
2022/10/27 09:27:05;;;;;;;13.77;5.10;;;;;;;14.67;100.00;99516.56;6174945;23;20199;-56
2022/10/27 09:29:35;;;;;;;15.83;6.60;;;;;;;14.73;100.00;99519.41;6171133;23;20201;-54
2022/10/27 09:32:07;;;;;;;14.70;6.87;;;;;;;14.76;100.00;99518.28;6174911;23;20208;-54
2022/10/27 09:34:40;;;;;;;15.63;6.33;;;;;;;14.79;100.00;99512.72;6171435;23;20647;-54
2022/10/27 09:37:13;;;;;;;12.27;6.00;;;;;;;14.87;100.00;99502.22;6175284;23;20584;-55
2022/10/27 09:39:43;;;;;;;10.83;5.50;;;;;;;14.93;100.00;99508.66;6172101;23;20291;-56
2022/10/27 09:42:10;;;;;;;12.87;6.40;;;;;;;14.95;100.00;99513.75;6174953;23;20208;-52
2022/10/27 09:44:37;;;;;;;10.70;5.20;;;;;;;15.02;100.00;99506.88;6171784;23;20207;-52
2022/10/27 09:47:03;;;;;;;9.63;4.97;;;;;;;15.08;100.00;99510.72;6174913;23;20737;-53
2022/10/27 09:49:37;;;;;;;14.47;5.53;;;;;;;15.17;100.00;99505.31;6170664;23;20211;-56
2022/10/27 09:52:10;;;;;;;10.30;4.90;;;;;;;15.27;100.00;99504.34;6174607;23;20675;-60
2022/10/27 09:54:41;;;;;;;17.67;5.90;;;;;;;15.34;100.00;99500.94;6171484;23;20729;-56
2022/10/27 09:57:11;;;;;;;10.27;5.90;;;;;;;15.45;100.00;99496.34;6175202;23;20267;-57
2022/10/27 09:59:40;;;;;;;9.90;5.20;;;;;;;15.56;100.00;99500.47;6171356;23;20811;-56
2022/10/27 10:02:23;;;;;;;10.17;5.20;;;;;;;15.65;100.00;99497.69;6175172;23;20563;-55
2022/10/27 10:04:51;;;;;;;14.27;5.00;;;;;;;15.77;100.00;99500.84;6171357;23;20255;-55
2022/10/27 10:07:33;;;;;;;14.03;5.40;;;;;;;15.76;100.00;99504.47;6160784;23;20204;-55
2022/10/27 10:10:16;;;;;;;10.47;5.00;;;;;;;15.84;100.00;99494.94;6169411;23;20197;-56
2022/10/27 10:12:43;;;;;;;14.27;4.73;;;;;;;15.90;100.00;99496.94;6167011;23;20440;-56
2022/10/27 10:15:21;;;;;;;10.77;4.53;;;;;;;15.91;100.00;99490.66;6169532;23;20259;-56
2022/10/27 10:17:54;;;;;;;15.30;4.60;;;;;;;16.02;99.89;99497.44;6166971;23;20201;-58
2022/10/27 10:20:31;;;;;;;11.73;4.93;;;;;;;16.03;99.56;99497.25;6166750;23;20208;-53
2022/10/27 10:22:58;;;;;;;9.57;4.57;;;;;;;16.12;98.78;99507.78;6169634;23;20254;-58
2022/10/27 10:25:27;;;;;;;15.00;4.47;;;;;;;16.20;98.58;99506.00;6165795;23;20258;-56
2022/10/27 10:27:58;;;;;;;9.10;4.87;;;;;;;16.34;98.10;99508.94;6169619;23;20647;-56
2022/10/27 10:30:25;;;;;;;12.83;4.73;;;;;;;16.29;98.15;99503.34;6166386;23;20218;-56
2022/10/27 10:32:56;;;;;;;11.23;4.33;;;;;;;16.38;98.91;99503.16;6144664;23;20206;-57
2022/10/27 10:35:45;;;;;;;10.37;4.63;;;;;;;16.38;99.14;99495.25;6167687;23;20660;-57
2022/10/27 10:38:33;;;;;;;10.17;4.73;;;;;;;16.50;97.49;99495.72;6141549;23;20204;-56
2022/10/27 10:41:05;;;;;;;8.67;5.13;;;;;;;16.55;98.18;99499.66;6172976;23;20209;-57
2022/10/27 10:43:33;;;;;;;13.17;4.97;;;;;;;16.58;98.08;99501.97;6170090;23;20664;-57
2022/10/27 10:45:59;;;;;;;11.97;4.63;;;;;;;16.66;97.81;99499.31;6175892;23;20208;-56
2022/10/27 10:48:30;;;;;;;10.57;4.57;;;;;;;16.57;98.08;99487.97;6172451;23;20635;-55
2022/10/27 10:50:58;;;;;;;10.57;5.13;;;;;;;16.63;98.52;99481.19;6176127;23;20260;-54
2022/10/27 10:53:28;;;;;;;13.50;5.13;;;;;;;16.70;97.20;99479.53;6172964;23;20661;-55
2022/10/27 10:55:57;;;;;;;10.33;4.97;;;;;;;16.76;96.40;99478.03;6176620;23;20682;-56
2022/10/27 10:58:27;;;;;;;16.60;4.60;;;;;;;16.76;95.85;99470.94;6172659;23;20208;-56
2022/10/27 11:00:56;;;;;;;9.93;4.77;;;;;;;16.82;95.80;99478.16;6175912;23;20204;-56
2022/10/27 11:03:25;;;;;;;12.43;4.60;;;;;;;16.82;96.64;99472.91;6172555;23;20666;-57
2022/10/27 11:05:59;;;;;;;10.13;5.17;;;;;;;16.87;97.96;99464.50;6176237;23;20204;-56
2022/10/27 11:08:33;;;;;;;14.00;5.20;;;;;;;16.93;96.43;99452.41;6172907;23;20202;-54
2022/10/27 11:11:01;;;;;;;7.93;4.87;;;;;;;17.06;96.35;99441.34;6176401;23;20614;-52
2022/10/27 11:13:37;;;;;;;8.63;4.73;;;;;;;17.18;96.20;99437.31;6172272;23;20260;-59
2022/10/27 11:16:06;;;;;;;12.43;4.93;;;;;;;17.19;95.93;99438.97;6176317;23;20203;-55
2022/10/27 11:18:44;;;;;;;12.43;5.53;;;;;;;17.27;96.19;99435.47;6146523;23;20270;-55
2022/10/27 11:21:19;;;;;;;11.70;4.90;;;;;;;17.27;95.00;99430.19;6174799;23;20664;-54
2022/10/27 11:23:48;;;;;;;16.80;4.93;;;;;;;17.37;95.37;99429.94;6173308;23;20214;-53
2022/10/27 11:26:19;;;;;;;8.67;4.40;;;;;;;17.42;93.03;99432.88;6171762;23;20198;-57
2022/10/27 11:28:54;;;;;;;15.07;4.67;;;;;;;17.49;93.21;99425.91;6176190;23;20214;-54
2022/10/27 11:31:27;;;;;;;12.67;4.87;;;;;;;17.63;93.13;99428.78;6172096;23;20597;-56